Time;durP1;ratioP1;P1;durP2;ratioP2;P2;SDS_P1;SDS_P2;PMS_P1;PMS_P2;Temp;Humidity;BMP_temperature;BMP_pressure;BME280_temperature;BME280_humidity;BME280_pressure;Samples;Min_cycle;Max_cycle;Signal;HPM_P1;HPM_P2
2021/12/30 00:04:31;;;;;;;34.33;21.65;;;;;;;7.53;100.00;98602.63;5093892;28;20167;-95
2021/12/30 00:06:58;;;;;;;47.55;25.75;;;;;;;7.37;100.00;98609.94;5093776;28;20093;-95
2021/12/30 00:09:25;;;;;;;45.63;25.95;;;;;;;7.39;100.00;98609.03;5092885;28;20074;-94
2021/12/30 00:11:51;;;;;;;38.63;24.85;;;;;;;7.41;100.00;98616.91;5092770;28;20072;-95
2021/12/30 00:14:17;;;;;;;41.95;24.38;;;;;;;7.33;100.00;98646.16;5093563;28;20045;-96
2021/12/30 00:20:07;;;;;;;43.55;27.08;;;;;;;7.49;100.00;98640.63;5091643;28;20060;-94
2021/12/30 00:22:37;;;;;;;45.45;25.90;;;;;;;7.55;100.00;98645.81;5092123;28;20040;-94
2021/12/30 00:25:03;;;;;;;43.67;26.15;;;;;;;7.34;100.00;98631.16;5092517;28;20048;-95
2021/12/30 00:27:29;;;;;;;45.08;27.00;;;;;;;7.40;100.00;98628.41;5093403;28;20093;-95
2021/12/30 00:29:55;;;;;;;44.78;25.60;;;;;;;7.32;100.00;98620.59;5092718;28;20065;-94
2021/12/30 00:35:43;;;;;;;40.10;24.02;;;;;;;7.23;100.00;98623.41;5090746;28;20028;-94
2021/12/30 00:38:11;;;;;;;42.35;24.98;;;;;;;7.19;100.00;98616.41;5072557;28;20045;-96
2021/12/30 00:40:38;;;;;;;38.38;23.52;;;;;;;7.26;100.00;98625.13;5066752;28;20064;-94
2021/12/30 00:43:05;;;;;;;43.28;23.27;;;;;;;7.14;100.00;98615.63;5061041;28;20090;-95
2021/12/30 00:49:33;;;;;;;45.33;23.35;;;;;;;7.36;100.00;98643.47;5059508;28;20123;-94
2021/12/30 00:51:59;;;;;;;36.35;21.25;;;;;;;7.24;100.00;98632.19;5061814;28;20025;-95
2021/12/30 00:54:26;;;;;;;37.00;21.15;;;;;;;7.32;100.00;98641.75;5079138;28;20050;-95
2021/12/30 00:56:52;;;;;;;32.45;18.92;;;;;;;7.27;100.00;98650.69;5080629;28;20052;-95
2021/12/30 00:59:18;;;;;;;35.13;18.67;;;;;;;7.14;100.00;98635.00;5079233;28;20064;-96
2021/12/30 01:02:09;;;;;;;34.80;20.67;;;;;;;7.16;100.00;98651.72;5080643;28;20505;-94
2021/12/30 01:04:35;;;;;;;30.83;18.98;;;;;;;6.99;100.00;98653.72;5080614;28;20044;-93
2021/12/30 01:07:01;;;;;;;28.63;18.77;;;;;;;6.87;100.00;98659.19;5079823;28;20094;-96
2021/12/30 01:09:28;;;;;;;27.88;18.52;;;;;;;6.75;100.00;98654.94;5078486;28;20063;-95
2021/12/30 01:11:55;;;;;;;22.90;15.10;;;;;;;6.69;100.00;98647.09;5078232;28;20400;-95
2021/12/30 01:14:24;;;;;;;25.70;15.05;;;;;;;6.87;100.00;98672.41;5078337;28;20055;-92
2021/12/30 01:19:53;;;;;;;26.50;14.65;;;;;;;6.77;100.00;98647.88;5078140;28;19917;-95
2021/12/30 01:22:22;;;;;;;32.88;15.63;;;;;;;6.58;100.00;98629.63;5079174;28;20068;-94
2021/12/30 01:24:50;;;;;;;28.43;16.80;;;;;;;6.38;100.00;98634.28;5078245;28;20048;-93
2021/12/30 01:27:18;;;;;;;28.67;17.50;;;;;;;6.42;100.00;98646.56;5077574;28;20052;-94
2021/12/30 01:29:46;;;;;;;28.92;17.23;;;;;;;6.30;100.00;98631.72;5076877;28;20114;-95
2021/12/30 01:38:55;;;;;;;28.65;15.07;;;;;;;6.33;100.00;98655.47;5078101;28;20028;-94
2021/12/30 01:41:23;;;;;;;23.35;15.23;;;;;;;6.25;100.00;98653.81;5077639;28;20048;-93
2021/12/30 01:43:50;;;;;;;20.23;14.00;;;;;;;6.34;100.00;98662.50;5077766;28;20132;-95
2021/12/30 01:52:59;;;;;;;21.30;14.35;;;;;;;6.10;100.00;98662.78;5056238;28;20039;-96
2021/12/30 01:55:25;;;;;;;23.23;15.43;;;;;;;6.02;100.00;98646.16;5065639;28;20040;-93
2021/12/30 01:57:53;;;;;;;23.45;14.75;;;;;;;6.10;100.00;98668.94;5077873;28;20045;-94
2021/12/30 02:07:03;;;;;;;24.73;15.13;;;;;;;5.99;100.00;98677.88;5077554;28;20086;-94
2021/12/30 02:09:30;;;;;;;23.73;14.70;;;;;;;6.07;100.00;98694.47;5076333;28;20036;-95
2021/12/30 02:11:57;;;;;;;21.60;15.27;;;;;;;5.92;100.00;98679.63;5077748;28;20101;-94
2021/12/30 02:14:24;;;;;;;24.40;15.68;;;;;;;6.05;100.00;98701.53;5077241;28;20044;-95
2021/12/30 02:20:39;;;;;;;79.72;14.52;;;;;;;6.20;100.00;98669.69;5078073;28;20033;-93
2021/12/30 02:23:06;;;;;;;94.65;17.08;;;;;;;6.22;100.00;98677.59;5077701;28;20041;-94
2021/12/30 02:25:32;;;;;;;97.70;14.85;;;;;;;6.34;100.00;98680.97;5077818;28;20067;-93
2021/12/30 02:27:58;;;;;;;94.03;14.93;;;;;;;6.36;100.00;98692.41;5077934;28;20885;-93
2021/12/30 02:37:15;;;;;;;71.25;13.95;;;;;;;6.31;100.00;98680.13;5076931;28;20029;-96
2021/12/30 02:39:44;;;;;;;83.10;16.50;;;;;;;6.21;100.00;98671.47;5078200;28;20051;-93
2021/12/30 02:42:10;;;;;;;70.82;12.88;;;;;;;6.30;100.00;98684.56;5077094;28;20036;-94
2021/12/30 02:44:36;;;;;;;20.88;11.15;;;;;;;6.23;100.00;98667.03;5077396;28;20051;-94
2021/12/30 02:50:23;;;;;;;29.05;16.85;;;;;;;6.09;100.00;98671.56;5077204;28;20042;-94
2021/12/30 02:52:51;;;;;;;70.60;19.48;;;;;;;5.89;100.00;98666.47;5078257;28;20055;-95
2021/12/30 02:55:17;;;;;;;82.30;17.17;;;;;;;5.93;100.00;98694.59;5076475;28;20059;-94
2021/12/30 02:57:43;;;;;;;112.05;17.73;;;;;;;5.88;100.00;98673.53;5075880;28;20048;-94
2021/12/30 03:07:19;;;;;;;42.55;13.00;;;;;;;6.14;100.00;98709.38;5069952;28;20421;-93
2021/12/30 03:09:47;;;;;;;34.47;12.60;;;;;;;6.08;100.00;98681.28;5074414;28;20044;-93
2021/12/30 03:12:13;;;;;;;17.60;10.77;;;;;;;6.15;100.00;98692.63;5071562;28;20032;-93
2021/12/30 03:14:39;;;;;;;16.90;10.00;;;;;;;6.16;100.00;98687.34;5076512;28;20052;-93
2021/12/30 03:20:27;;;;;;;20.33;10.88;;;;;;;6.08;100.00;98683.91;5076171;28;20028;-95
2021/12/30 03:22:53;;;;;;;13.32;9.02;;;;;;;6.01;100.00;98686.63;5076787;28;20053;-93
2021/12/30 03:25:20;;;;;;;13.77;8.70;;;;;;;5.77;100.00;98667.50;5076547;28;20040;-93
2021/12/30 03:27:46;;;;;;;12.05;7.80;;;;;;;5.87;100.00;98694.66;5075692;28;20565;-95
2021/12/30 03:33:53;;;;;;;13.32;7.97;;;;;;;5.71;100.00;98675.44;5063512;28;20040;-93
2021/12/30 03:36:20;;;;;;;42.17;9.60;;;;;;;5.75;100.00;98671.91;5074917;28;20056;-93
2021/12/30 03:38:49;;;;;;;25.05;9.85;;;;;;;5.79;100.00;98683.28;5075643;28;20101;-94
2021/12/30 03:41:20;;;;;;;32.88;9.48;;;;;;;5.80;100.00;98699.09;5075429;28;20047;-94
2021/12/30 03:43:46;;;;;;;181.35;15.80;;;;;;;5.83;100.00;98700.84;5075593;28;20044;-94
2021/12/30 03:52:58;;;;;;;101.90;12.48;;;;;;;5.85;100.00;98706.97;5075046;28;20036;-95
2021/12/30 03:55:25;;;;;;;120.68;13.00;;;;;;;5.83;100.00;98693.78;5076261;28;20490;-94
2021/12/30 03:57:54;;;;;;;82.95;10.95;;;;;;;5.82;100.00;98718.44;5075765;28;20044;-95
2021/12/30 04:03:55;;;;;;;97.65;10.90;;;;;;;6.05;100.00;98725.28;5069886;28;20040;-94
2021/12/30 04:06:21;;;;;;;122.90;12.95;;;;;;;6.03;100.00;98738.53;5076607;28;20044;-94
2021/12/30 04:08:47;;;;;;;193.45;15.57;;;;;;;6.01;100.00;98716.56;5076209;28;20052;-93
2021/12/30 04:11:13;;;;;;;155.70;14.80;;;;;;;6.13;100.00;98734.88;5076639;28;20036;-94
2021/12/30 04:13:41;;;;;;;102.10;13.98;;;;;;;5.86;100.00;98708.75;5075434;28;20051;-95
2021/12/30 04:19:32;;;;;;;321.08;21.85;;;;;;;5.97;100.00;98734.16;5078561;28;20029;-95
2021/12/30 04:21:58;;;;;;;121.05;11.40;;;;;;;5.99;100.00;98715.69;5078569;28;20048;-93
2021/12/30 04:24:24;;;;;;;179.35;14.38;;;;;;;6.05;100.00;98714.75;5078253;28;20047;-94
2021/12/30 04:26:51;;;;;;;243.63;24.98;;;;;;;6.24;100.00;98731.28;5078807;28;20036;-95
2021/12/30 04:29:18;;;;;;;66.32;12.93;;;;;;;6.21;100.00;98755.09;5078112;28;20059;-93
2021/12/30 04:35:07;;;;;;;133.13;14.43;;;;;;;6.15;100.00;98767.44;5067231;28;20036;-93
2021/12/30 04:37:33;;;;;;;20.25;9.80;;;;;;;6.26;100.00;98777.91;5077791;28;20120;-94
2021/12/30 04:39:59;;;;;;;55.50;10.50;;;;;;;6.18;100.00;98740.16;5078688;28;20067;-95
2021/12/30 04:42:25;;;;;;;62.63;9.93;;;;;;;6.34;100.00;98752.28;5078148;28;20041;-96
2021/12/30 04:44:52;;;;;;;108.93;11.82;;;;;;;6.41;100.00;98749.59;5077830;28;20052;-94
2021/12/30 04:51:00;;;;;;;121.15;13.80;;;;;;;6.37;100.00;98767.22;5062479;28;20416;-94
2021/12/30 04:53:26;;;;;;;46.35;9.38;;;;;;;6.46;100.00;98784.75;5077433;28;20044;-94
2021/12/30 04:55:52;;;;;;;87.07;11.25;;;;;;;6.53;100.00;98775.88;5078145;28;20048;-94
2021/12/30 04:58:18;;;;;;;24.98;8.80;;;;;;;6.48;100.00;98773.28;5077072;28;20044;-94
2021/12/30 05:04:34;;;;;;;51.85;8.73;;;;;;;6.62;100.00;98796.06;5079343;28;20032;-93
2021/12/30 05:07:00;;;;;;;19.25;8.75;;;;;;;6.47;100.00;98800.59;5073417;28;20410;-93
2021/12/30 05:09:26;;;;;;;36.70;10.82;;;;;;;6.38;100.00;98798.06;5076412;28;20037;-95
2021/12/30 05:11:52;;;;;;;62.00;11.20;;;;;;;6.28;100.00;98781.41;5076661;28;20040;-93
2021/12/30 05:14:18;;;;;;;54.13;12.48;;;;;;;6.24;100.00;98799.94;5076319;28;20084;-94
2021/12/30 05:16:45;;;;;;;46.67;11.10;;;;;;;6.29;100.00;98814.84;5075416;28;20131;-94
2021/12/30 05:19:11;;;;;;;38.83;10.55;;;;;;;6.33;100.00;98806.03;5076449;28;20041;-94
2021/12/30 05:21:38;;;;;;;50.20;11.10;;;;;;;6.35;100.00;98792.78;5075992;28;20045;-94
2021/12/30 05:24:05;;;;;;;46.00;11.73;;;;;;;6.35;100.00;98805.97;5076368;28;20066;-94
2021/12/30 05:26:30;;;;;;;50.88;11.43;;;;;;;6.33;100.00;98799.84;5076450;28;20049;-94
2021/12/30 05:28:57;;;;;;;42.65;10.40;;;;;;;6.36;100.00;98805.09;5075888;28;20060;-94
2021/12/30 05:38:29;;;;;;;26.05;8.27;;;;;;;6.47;100.00;98836.72;5065064;28;20060;-93
2021/12/30 05:40:55;;;;;;;30.92;8.93;;;;;;;6.31;100.00;98812.19;5076282;28;20083;-95
2021/12/30 05:43:21;;;;;;;38.65;9.98;;;;;;;6.35;100.00;98820.09;5076710;28;20032;-94
2021/12/30 05:55:53;;;;;;;31.55;11.23;;;;;;;6.52;100.00;98842.81;5073216;28;20115;-94
2021/12/30 05:58:19;;;;;;;101.88;10.60;;;;;;;6.56;100.00;98852.47;5075814;28;20048;-94
2021/12/30 06:10:50;;;;;;;18.27;8.55;;;;;;;6.47;100.00;98878.97;5075663;28;20071;-95
2021/12/30 06:13:19;;;;;;;40.83;8.98;;;;;;;6.49;100.00;98874.56;5075662;28;20056;-95
2021/12/30 06:19:34;;;;;;;38.97;9.57;;;;;;;6.64;100.00;98892.91;5064482;28;20486;-94
2021/12/30 06:21:59;;;;;;;23.58;9.50;;;;;;;6.62;100.00;98885.88;5068207;28;20132;-94
2021/12/30 06:24:25;;;;;;;38.45;10.00;;;;;;;6.71;100.00;98901.66;5075554;28;20128;-94
2021/12/30 06:26:51;;;;;;;42.20;10.27;;;;;;;6.72;100.00;98891.06;5075406;28;20090;-94
2021/12/30 06:29:18;;;;;;;24.17;9.75;;;;;;;6.67;100.00;98876.13;5075591;28;20048;-94
2021/12/30 06:35:08;;;;;;;37.28;9.88;;;;;;;6.78;100.00;98895.41;5075506;28;20470;-94
2021/12/30 06:37:35;;;;;;;45.40;10.55;;;;;;;6.77;100.00;98905.09;5074838;28;20055;-95
2021/12/30 06:40:01;;;;;;;26.15;9.68;;;;;;;6.77;100.00;98898.94;5076019;28;20047;-94
2021/12/30 06:42:26;;;;;;;18.02;9.10;;;;;;;6.90;100.00;98924.38;5075271;28;20486;-94
2021/12/30 06:44:54;;;;;;;21.98;9.82;;;;;;;6.91;100.00;98933.16;5075100;28;20040;-95
2021/12/30 07:00:48;;;;;;;46.10;10.23;;;;;;;6.91;100.00;98967.53;5058416;28;20031;-95
2021/12/30 07:03:14;;;;;;;51.38;10.43;;;;;;;6.84;100.00;98971.13;5076041;28;20112;-96
2021/12/30 07:05:40;;;;;;;29.13;10.60;;;;;;;6.81;100.00;98960.56;5077095;28;20037;-93
2021/12/30 07:08:06;;;;;;;33.45;9.88;;;;;;;6.81;100.00;98955.28;5077641;28;20055;-93
2021/12/30 07:10:32;;;;;;;37.60;11.20;;;;;;;6.92;100.00;98982.53;5075366;28;20037;-94
2021/12/30 07:12:57;;;;;;;25.98;11.15;;;;;;;6.83;100.00;98964.06;5076836;28;20040;-94
2021/12/30 07:19:31;;;;;;;37.25;10.13;;;;;;;6.95;100.00;98985.13;5075416;28;20378;-94
2021/12/30 07:21:58;;;;;;;36.50;9.68;;;;;;;6.78;100.00;98958.84;5055227;28;20037;-96
2021/12/30 07:24:24;;;;;;;38.72;10.23;;;;;;;7.05;100.00;98965.66;5055970;28;20402;-95
2021/12/30 07:26:51;;;;;;;27.23;10.00;;;;;;;6.92;100.00;98951.66;5070011;28;20044;-95
2021/12/30 07:29:17;;;;;;;53.78;10.88;;;;;;;7.06;100.00;98971.81;5075530;28;20048;-96
2021/12/30 07:35:05;;;;;;;57.00;11.20;;;;;;;7.03;100.00;98948.06;5068376;28;20036;-95
2021/12/30 07:37:33;;;;;;;39.33;10.80;;;;;;;6.91;100.00;98952.53;5079815;28;20056;-94
2021/12/30 07:39:59;;;;;;;58.90;12.07;;;;;;;7.02;100.00;98968.31;5078730;28;20037;-95
2021/12/30 07:42:24;;;;;;;82.40;15.15;;;;;;;6.97;100.00;98973.63;5078878;28;20051;-94
2021/12/30 07:44:50;;;;;;;100.13;13.88;;;;;;;6.94;100.00;98956.91;5079278;28;20078;-95
2021/12/30 07:50:39;;;;;;;68.13;12.73;;;;;;;6.95;100.00;98970.13;5079485;28;20032;-96
2021/12/30 07:53:06;;;;;;;87.00;14.98;;;;;;;7.07;100.00;98992.97;5082551;28;20043;-95
2021/12/30 07:55:33;;;;;;;106.78;14.57;;;;;;;6.99;100.00;98976.28;5082036;28;20559;-94
2021/12/30 07:57:59;;;;;;;185.00;18.90;;;;;;;6.96;100.00;98986.88;5080786;28;20056;-96
2021/12/30 08:00:25;;;;;;;85.53;14.20;;;;;;;6.98;100.00;98993.03;5082398;28;20063;-93
2021/12/30 08:02:51;;;;;;;180.00;16.50;;;;;;;6.84;100.00;98976.44;5081959;28;20123;-93
2021/12/30 08:05:18;;;;;;;149.30;18.05;;;;;;;6.86;100.00;98977.28;5080912;28;20072;-94
2021/12/30 08:07:46;;;;;;;95.68;14.88;;;;;;;6.95;100.00;98982.47;5081514;28;20040;-95
2021/12/30 08:10:15;;;;;;;202.25;18.33;;;;;;;7.00;100.00;98983.31;5080978;28;20067;-94
2021/12/30 08:12:43;;;;;;;94.28;13.70;;;;;;;6.93;100.00;98982.50;5082244;28;20044;-95
2021/12/30 08:15:10;;;;;;;93.28;14.95;;;;;;;7.08;100.00;99002.63;5082768;28;20087;-95
2021/12/30 08:17:36;;;;;;;78.75;13.68;;;;;;;7.02;100.00;98991.22;5081509;28;20048;-95
2021/12/30 08:20:04;;;;;;;66.28;13.05;;;;;;;7.17;100.00;99014.88;5083030;28;20047;-94
2021/12/30 08:22:31;;;;;;;65.10;12.48;;;;;;;7.19;100.00;99008.69;5080812;28;20040;-93
2021/12/30 08:24:57;;;;;;;61.67;12.60;;;;;;;7.25;100.00;99026.28;5082497;28;20052;-94
2021/12/30 08:27:24;;;;;;;51.42;13.68;;;;;;;7.21;100.00;99008.69;5081418;28;20067;-94
2021/12/30 08:29:50;;;;;;;45.65;12.38;;;;;;;7.38;100.00;99021.75;5080738;28;20044;-94
2021/12/30 08:32:35;;;;;;;23.08;11.82;;;;;;;7.40;100.00;99014.66;5079298;28;20048;-94
2021/12/30 08:35:01;;;;;;;30.85;12.10;;;;;;;7.44;100.00;99018.16;5080115;28;20509;-95
2021/12/30 08:37:27;;;;;;;74.28;16.13;;;;;;;7.64;100.00;99049.72;5077690;28;20554;-93
2021/12/30 08:39:53;;;;;;;43.67;15.20;;;;;;;7.54;100.00;99039.19;5076903;28;20132;-95
2021/12/30 08:42:21;;;;;;;50.17;15.00;;;;;;;7.51;100.00;99026.00;5079576;28;20094;-95
2021/12/30 08:44:49;;;;;;;26.33;13.77;;;;;;;7.63;100.00;99032.06;5078576;28;20603;-94
2021/12/30 08:50:37;;;;;;;52.80;11.75;;;;;;;7.51;100.00;99051.59;5080836;28;20028;-94
2021/12/30 08:53:04;;;;;;;21.17;10.52;;;;;;;7.88;100.00;99056.50;5078939;28;20051;-94
2021/12/30 08:55:29;;;;;;;49.75;10.80;;;;;;;7.89;100.00;99035.28;5079356;28;20048;-96
2021/12/30 08:57:55;;;;;;;43.35;10.18;;;;;;;8.05;100.00;99054.53;5080510;28;20047;-95
2021/12/30 09:04:30;;;;;;;49.17;10.57;;;;;;;8.42;100.00;99068.19;5081618;28;20028;-94
2021/12/30 09:06:57;;;;;;;42.10;9.80;;;;;;;8.20;100.00;99061.41;5078872;28;20025;-95
2021/12/30 09:09:24;;;;;;;32.80;9.65;;;;;;;8.36;100.00;99075.31;5077737;28;20044;-95
2021/12/30 09:11:50;;;;;;;28.23;9.38;;;;;;;8.24;100.00;99041.94;5077689;28;20126;-94
2021/12/30 09:14:16;;;;;;;115.65;14.13;;;;;;;7.99;100.00;99044.88;5079083;28;20143;-95
2021/12/30 09:20:49;;;;;;;139.02;12.98;;;;;;;7.92;100.00;99082.06;5079346;28;20156;-94
2021/12/30 09:23:16;;;;;;;;;;;;;;;7.82;100.00;99090.06;5078419;28;20036;-94
2021/12/30 09:25:42;;;;;;;129.57;39.83;;;;;;;7.86;100.00;99066.22;5076176;28;19924;-94
2021/12/30 09:28:11;;;;;;;156.63;18.02;;;;;;;7.85;100.00;99081.25;5076175;28;20128;-92
2021/12/30 09:34:33;;;;;;;199.13;17.40;;;;;;;8.07;100.00;99092.47;5068345;28;20123;-93
2021/12/30 09:37:02;;;;;;;129.13;25.92;;;;;;;7.95;100.00;99056.38;5075455;28;20131;-93
2021/12/30 09:39:29;;;;;;;48.55;23.67;;;;;;;8.19;100.00;99071.09;5076369;28;20390;-94
2021/12/30 09:41:55;;;;;;;66.65;12.95;;;;;;;8.33;100.00;99067.44;5076064;28;20071;-93
2021/12/30 09:44:22;;;;;;;158.30;32.35;;;;;;;8.33;100.00;99067.44;5076208;28;20044;-94
2021/12/30 09:50:12;;;;;;;99.75;15.68;;;;;;;8.40;100.00;99064.69;5070848;28;20484;-95
2021/12/30 09:52:38;;;;;;;97.63;16.70;;;;;;;8.31;100.00;99063.91;5075583;28;20048;-93
2021/12/30 09:55:07;;;;;;;98.15;15.82;;;;;;;8.35;100.00;99069.16;5074912;28;20111;-93
2021/12/30 09:57:33;;;;;;;;;;;;;;;8.35;100.00;99087.69;5076085;28;20076;-95
2021/12/30 09:59:59;;;;;;;53.78;15.38;;;;;;;8.22;100.00;99062.28;5075660;28;19948;-94
2021/12/30 10:05:46;;;;;;;33.30;12.98;;;;;;;8.62;100.00;99072.34;5076052;28;20028;-94
2021/12/30 10:08:16;;;;;;;46.50;20.83;;;;;;;8.58;100.00;99054.72;5075248;28;20040;-94
2021/12/30 10:10:45;;;;;;;47.90;17.38;;;;;;;8.88;100.00;99066.66;5075486;28;20111;-95
2021/12/30 10:13:21;;;;;;;33.53;12.57;;;;;;;8.98;100.00;99070.06;5074364;28;20037;-94
2021/12/30 10:22:30;;;;;;;28.83;13.85;;;;;;;9.24;100.00;99075.81;5074110;28;20024;-95
2021/12/30 10:24:56;;;;;;;30.38;15.27;;;;;;;9.46;100.00;99084.25;5075254;28;20086;-94
2021/12/30 10:27:25;;;;;;;29.17;15.20;;;;;;;9.55;100.00;99077.91;5075123;28;20131;-95
2021/12/30 10:29:54;;;;;;;;;;;;;;;9.72;100.00;99082.94;5074763;28;20040;-95
2021/12/30 10:35:42;;;;;;;42.13;15.85;;;;;;;9.94;100.00;99067.44;5067711;28;20059;-95
2021/12/30 10:38:10;;;;;;;33.25;17.63;;;;;;;9.85;100.00;99065.84;5074926;28;20052;-95
2021/12/30 10:40:38;;;;;;;32.70;17.73;;;;;;;9.95;100.00;99078.94;5075076;28;20570;-95
2021/12/30 10:43:23;;;;;;;43.50;22.45;;;;;;;9.89;100.00;99061.38;5063930;28;20398;-94
2021/12/30 10:49:32;;;;;;;60.70;28.92;;;;;;;10.27;100.00;99076.50;5067165;28;20478;-95
2021/12/30 10:51:59;;;;;;;33.30;18.55;;;;;;;10.24;100.00;99047.34;5074687;28;20078;-95
2021/12/30 10:54:30;;;;;;;35.97;19.27;;;;;;;10.36;100.00;99048.00;5072454;28;20094;-95
2021/12/30 10:56:58;;;;;;;35.70;18.42;;;;;;;10.43;100.00;99068.22;5068382;28;20063;-95
2021/12/30 10:59:29;;;;;;;48.95;27.20;;;;;;;10.37;100.00;99065.72;5067726;28;20043;-94
2021/12/30 11:05:53;;;;;;;32.15;17.00;;;;;;;10.41;100.00;99078.03;5072046;28;20103;-96
2021/12/30 11:08:26;;;;;;;40.80;18.90;;;;;;;10.25;100.00;99064.16;5074923;28;20039;-95
2021/12/30 11:10:52;;;;;;;37.75;18.45;;;;;;;10.08;100.00;99062.75;5070450;28;20067;-96
2021/12/30 11:13:18;;;;;;;41.33;20.63;;;;;;;10.00;100.00;99064.69;5074931;28;20135;-94
2021/12/30 11:22:35;;;;;;;80.65;44.22;;;;;;;10.29;100.00;99047.28;5065386;28;20024;-94
2021/12/30 11:25:04;;;;;;;55.22;23.52;;;;;;;10.38;100.00;99052.38;5074430;28;20051;-94
2021/12/30 11:27:30;;;;;;;;;;;;;;;10.59;100.00;99069.66;5073697;28;20494;-94
2021/12/30 11:30:00;;;;;;;55.88;27.35;;;;;;;10.64;100.00;99049.13;5075983;28;19959;-94
2021/12/30 11:35:31;;;;;;;46.53;22.42;;;;;;;10.94;100.00;99041.34;5075956;28;19923;-94
2021/12/30 11:38:00;;;;;;;46.57;22.67;;;;;;;11.03;100.00;99033.16;5077217;28;20077;-96
2021/12/30 11:40:27;;;;;;;38.00;21.52;;;;;;;11.14;99.82;99045.31;5069829;28;20032;-96
2021/12/30 11:42:58;;;;;;;41.83;21.52;;;;;;;11.07;100.00;99031.28;5078131;28;20063;-95
2021/12/30 11:48:54;;;;;;;37.63;17.08;;;;;;;11.16;100.00;99057.66;5068211;28;20016;-96
2021/12/30 11:51:23;;;;;;;39.03;20.65;;;;;;;11.06;100.00;99042.84;5075552;28;20509;-95
2021/12/30 11:53:50;;;;;;;50.00;25.70;;;;;;;11.07;100.00;99044.59;5077540;28;20056;-94
2021/12/30 11:56:18;;;;;;;41.78;22.48;;;;;;;11.07;100.00;99055.25;5076836;28;20036;-94
2021/12/30 11:58:49;;;;;;;41.13;22.73;;;;;;;10.94;100.00;99037.84;5074454;28;20095;-95
2021/12/30 12:04:37;;;;;;;73.25;32.83;;;;;;;11.11;100.00;99059.59;5071057;28;20033;-93
2021/12/30 12:07:03;;;;;;;49.33;24.27;;;;;;;11.01;100.00;99044.75;5077313;28;20500;-93
2021/12/30 12:09:49;;;;;;;58.92;28.40;;;;;;;10.97;100.00;99067.88;5077361;28;20045;-94
2021/12/30 12:12:31;;;;;;;49.53;23.85;;;;;;;10.75;100.00;99038.25;5076073;28;20037;-95
2021/12/30 12:14:59;;;;;;;42.92;21.02;;;;;;;10.87;100.00;99064.59;5072312;28;20564;-95
2021/12/30 12:20:52;;;;;;;49.53;23.65;;;;;;;10.90;100.00;99056.50;5077327;28;20056;-95
2021/12/30 12:23:32;;;;;;;42.95;22.20;;;;;;;10.64;100.00;99033.19;5077212;28;20044;-95
2021/12/30 12:26:09;;;;;;;42.58;21.75;;;;;;;10.67;100.00;99045.56;5071055;28;20068;-96
2021/12/30 12:28:35;;;;;;;41.15;21.85;;;;;;;10.74;100.00;99048.97;5077156;28;20136;-94
2021/12/30 12:34:34;;;;;;;47.55;23.00;;;;;;;10.68;100.00;99060.59;5074864;28;20501;-94
2021/12/30 12:37:00;;;;;;;55.40;27.13;;;;;;;10.69;100.00;99057.00;5076565;28;20041;-95
2021/12/30 12:39:37;;;;;;;54.58;27.15;;;;;;;10.59;100.00;99064.34;5063735;28;20052;-94
2021/12/30 12:42:06;;;;;;;45.40;22.17;;;;;;;10.46;100.00;99053.09;5069045;28;20048;-94
2021/12/30 12:44:32;;;;;;;43.17;21.52;;;;;;;10.47;100.00;99072.56;5079985;28;20040;-94
2021/12/30 12:57:07;;;;;;;58.88;22.38;;;;;;;10.41;100.00;99068.28;5076357;28;20165;-94
2021/12/30 12:59:35;;;;;;;58.47;25.38;;;;;;;10.39;100.00;99075.41;5081522;28;20082;-95
2021/12/30 13:15:39;;;;;;;38.30;21.00;;;;;;;10.70;100.00;99088.03;5080993;28;20025;-95
2021/12/30 13:18:13;;;;;;;40.38;20.83;;;;;;;10.58;100.00;99061.72;5082325;28;20068;-95
2021/12/30 13:20:41;;;;;;;46.33;23.17;;;;;;;10.62;100.00;99074.03;5079410;28;20041;-96
2021/12/30 13:23:07;;;;;;;46.70;26.30;;;;;;;10.52;100.00;99059.19;5082516;28;20555;-94
2021/12/30 13:25:35;;;;;;;52.83;29.95;;;;;;;10.61;100.00;99077.63;5080895;28;20064;-95
2021/12/30 13:28:04;;;;;;;49.15;27.00;;;;;;;10.59;100.00;99066.13;5082736;28;20058;-94
2021/12/30 13:34:00;;;;;;;46.90;26.48;;;;;;;10.67;100.00;99072.16;5065898;28;20029;-93
2021/12/30 13:36:28;;;;;;;51.45;26.48;;;;;;;10.75;100.00;99086.13;5071261;28;20033;-93
2021/12/30 13:39:10;;;;;;;47.13;25.88;;;;;;;10.71;100.00;99076.47;5077439;28;20052;-95
2021/12/30 13:41:37;;;;;;;47.17;26.83;;;;;;;10.82;100.00;99101.06;5079928;28;20041;-94
2021/12/30 13:44:08;;;;;;;46.17;25.90;;;;;;;10.75;100.00;99080.81;5082326;28;20108;-95
2021/12/30 13:53:24;;;;;;;45.03;26.17;;;;;;;10.88;100.00;99084.94;5085183;28;20028;-95
2021/12/30 13:55:52;;;;;;;43.25;25.77;;;;;;;10.96;100.00;99094.56;5084674;28;20127;-95
2021/12/30 13:58:22;;;;;;;39.25;21.30;;;;;;;11.01;100.00;99074.00;5083602;28;20080;-96
2021/12/30 14:04:17;;;;;;;39.03;24.00;;;;;;;10.96;100.00;99078.59;5085452;28;20037;-95
2021/12/30 14:06:47;;;;;;;44.78;25.23;;;;;;;11.12;100.00;99103.03;5085495;28;20055;-96
2021/12/30 14:09:18;;;;;;;42.42;24.73;;;;;;;11.08;100.00;99091.56;5081458;28;20048;-96
2021/12/30 14:11:46;;;;;;;58.53;33.85;;;;;;;10.95;100.00;99092.78;5080078;28;20056;-96
2021/12/30 14:14:15;;;;;;;44.28;23.83;;;;;;;11.08;100.00;99113.78;5079778;28;20045;-94
2021/12/30 14:20:02;;;;;;;39.90;23.05;;;;;;;10.98;100.00;99114.88;5079770;28;20033;-94
2021/12/30 14:22:33;;;;;;;42.70;24.83;;;;;;;10.90;100.00;99108.84;5076971;28;20079;-95
2021/12/30 14:25:00;;;;;;;45.15;26.38;;;;;;;10.81;100.00;99106.41;5080782;28;20071;-96
2021/12/30 14:27:27;;;;;;;49.55;28.30;;;;;;;10.70;100.00;99098.69;5062057;28;20083;-95
2021/12/30 14:29:55;;;;;;;44.92;24.30;;;;;;;10.72;100.00;99104.84;5065355;28;20056;-95
2021/12/30 14:35:44;;;;;;;36.45;21.15;;;;;;;10.56;100.00;99109.63;5064839;28;20111;-95
2021/12/30 14:38:10;;;;;;;40.17;24.17;;;;;;;10.51;100.00;99124.78;5065803;28;20388;-95
2021/12/30 14:40:38;;;;;;;39.65;22.70;;;;;;;10.38;100.00;99124.16;5065522;28;20414;-96
2021/12/30 14:43:06;;;;;;;40.78;22.52;;;;;;;10.37;100.00;99127.75;5063286;28;20406;-96
2021/12/30 14:45:38;;;;;;;42.03;23.27;;;;;;;10.18;100.00;99123.66;5060324;28;20051;-96
2021/12/30 14:48:10;;;;;;;42.90;23.48;;;;;;;10.03;100.00;99136.34;5061759;28;20047;-96
2021/12/30 14:50:37;;;;;;;49.60;27.05;;;;;;;10.00;100.00;99152.34;5061558;28;20091;-95
2021/12/30 14:53:13;;;;;;;45.92;24.17;;;;;;;9.84;100.00;99132.28;5070412;28;20067;-96
2021/12/30 14:55:49;;;;;;;47.15;24.95;;;;;;;9.90;100.00;99161.38;5087636;28;20045;-96
2021/12/30 14:58:16;;;;;;;46.22;25.02;;;;;;;9.87;100.00;99143.72;5086281;28;20056;-95
2021/12/30 15:04:31;;;;;;;43.75;24.90;;;;;;;10.12;100.00;99177.81;5083985;28;20032;-94
2021/12/30 15:06:58;;;;;;;45.58;24.73;;;;;;;10.08;100.00;99168.13;5081717;28;20406;-94
2021/12/30 15:09:24;;;;;;;53.97;26.92;;;;;;;9.75;100.00;99145.72;5078915;28;20045;-94
2021/12/30 15:11:51;;;;;;;95.75;29.27;;;;;;;9.72;100.00;99161.72;5077077;28;20052;-94
2021/12/30 15:14:17;;;;;;;98.63;31.45;;;;;;;9.46;100.00;99185.13;5078658;28;20040;-95
2021/12/30 15:20:08;;;;;;;100.43;35.53;;;;;;;9.15;100.00;99150.25;5083662;28;20029;-96
2021/12/30 15:22:34;;;;;;;205.30;32.80;;;;;;;9.30;100.00;99180.09;5083348;28;20070;-95
2021/12/30 15:25:02;;;;;;;110.85;29.55;;;;;;;9.29;100.00;99176.56;5084373;28;20131;-95
2021/12/30 15:27:31;;;;;;;191.88;31.90;;;;;;;9.14;100.00;99171.50;5084367;28;20105;-94
2021/12/30 15:29:58;;;;;;;174.73;31.50;;;;;;;9.16;100.00;99173.22;5084505;28;20044;-95
2021/12/30 15:35:49;;;;;;;127.03;30.85;;;;;;;8.84;100.00;99171.03;5062314;28;20033;-96
2021/12/30 15:38:15;;;;;;;135.30;33.28;;;;;;;8.77;100.00;99167.56;5063874;28;20052;-96
2021/12/30 15:40:44;;;;;;;198.93;34.08;;;;;;;8.74;100.00;99170.28;5068895;28;20033;-95
2021/12/30 15:43:12;;;;;;;105.53;31.73;;;;;;;8.74;100.00;99172.03;5084098;28;20049;-96
2021/12/30 15:49:06;;;;;;;422.73;45.97;;;;;;;8.55;100.00;99166.13;5075288;28;20029;-95